createdAt,value
2022-07-25T00:01:46.784Z,46.34
2022-07-25T00:04:14.504Z,46.66
2022-07-25T00:06:42.198Z,46.11
2022-07-25T00:09:09.565Z,46.80
2022-07-25T00:11:36.235Z,46.58
2022-07-25T00:14:03.358Z,46.91
2022-07-25T00:16:30.468Z,47.08
2022-07-25T00:18:57.291Z,46.89
2022-07-25T00:21:23.951Z,46.71
2022-07-25T00:23:50.718Z,47.09
2022-07-25T00:26:17.380Z,47.14
2022-07-25T00:28:44.354Z,47.21
2022-07-25T00:31:11.300Z,46.77
2022-07-25T00:33:39.861Z,47.30
2022-07-25T00:36:08.099Z,46.95
2022-07-25T00:38:35.209Z,47.28
2022-07-25T00:41:02.914Z,47.49
2022-07-25T00:43:29.633Z,47.63
2022-07-25T00:45:58.749Z,47.05
2022-07-25T00:48:29.723Z,47.16
2022-07-25T00:50:57.086Z,46.88
2022-07-25T00:53:24.550Z,47.33
2022-07-25T00:55:52.201Z,47.35
2022-07-25T00:58:18.982Z,47.49
2022-07-25T01:00:46.115Z,47.61
2022-07-25T01:03:13.004Z,47.43
2022-07-25T01:05:39.790Z,47.78
2022-07-25T01:08:06.603Z,47.58
2022-07-25T01:10:34.006Z,47.96
2022-07-25T01:13:01.102Z,48.30
2022-07-25T01:15:28.362Z,48.18
2022-07-25T01:17:55.210Z,48.16
2022-07-25T01:20:23.819Z,48.47
2022-07-25T01:22:51.150Z,48.71
2022-07-25T01:25:17.871Z,48.41
2022-07-25T01:27:44.669Z,48.17
2022-07-25T01:30:13.867Z,48.39
2022-07-25T01:32:41.024Z,48.38
2022-07-25T01:35:08.570Z,48.35
2022-07-25T01:37:35.635Z,48.85
2022-07-25T01:40:04.459Z,49.02
2022-07-25T01:42:31.191Z,48.61
2022-07-25T01:44:58.450Z,48.65
2022-07-25T01:47:25.534Z,49.06
2022-07-25T01:49:52.504Z,48.78
2022-07-25T01:52:19.213Z,48.93
2022-07-25T01:54:45.988Z,49.03
2022-07-25T01:57:15.060Z,48.94
2022-07-25T01:59:43.601Z,48.96
2022-07-25T02:02:10.890Z,48.77
2022-07-25T02:04:37.780Z,48.80
2022-07-25T02:07:06.198Z,48.67
2022-07-25T02:09:33.049Z,48.37
2022-07-25T02:11:59.677Z,48.78
2022-07-25T02:14:26.545Z,48.68
2022-07-25T02:16:53.929Z,49.07
2022-07-25T02:19:20.777Z,48.92
2022-07-25T02:21:47.553Z,48.84
2022-07-25T02:24:14.393Z,48.98
2022-07-25T02:26:41.088Z,49.17
2022-07-25T02:29:07.938Z,49.09
2022-07-25T02:31:34.610Z,49.20
2022-07-25T02:34:01.877Z,49.71
2022-07-25T02:36:28.622Z,49.84
2022-07-25T02:38:55.557Z,49.51
2022-07-25T02:41:22.254Z,49.94
2022-07-25T02:43:48.998Z,49.48
2022-07-25T02:46:15.722Z,49.74
2022-07-25T02:48:42.559Z,49.41
2022-07-25T02:51:09.297Z,49.88
2022-07-25T02:53:55.897Z,50.10
2022-07-25T02:56:23.063Z,49.65
2022-07-25T02:58:50.250Z,49.62
2022-07-25T03:01:17.140Z,49.82
2022-07-25T03:03:44.028Z,49.71
2022-07-25T03:06:10.850Z,49.81
2022-07-25T03:08:37.654Z,49.69
2022-07-25T03:11:04.786Z,49.72
2022-07-25T03:13:33.193Z,49.91
2022-07-25T03:16:00.287Z,50.17
2022-07-25T03:18:26.999Z,50.25
2022-07-25T03:20:53.740Z,50.46
2022-07-25T03:23:20.419Z,50.19
2022-07-25T03:25:47.138Z,50.34
2022-07-25T03:28:13.787Z,50.35
2022-07-25T03:30:40.567Z,50.51
2022-07-25T03:33:07.269Z,50.63
2022-07-25T03:35:35.185Z,50.53
2022-07-25T03:38:02.311Z,50.72
2022-07-25T03:40:29.250Z,50.83
2022-07-25T03:42:55.978Z,50.92
2022-07-25T03:45:22.761Z,50.47
2022-07-25T03:47:50.106Z,50.41
2022-07-25T03:50:17.003Z,50.54
2022-07-25T03:52:43.773Z,50.60
2022-07-25T03:55:11.560Z,50.09
2022-07-25T03:57:39.032Z,50.05
2022-07-25T04:00:08.647Z,50.34
2022-07-25T04:02:37.694Z,49.79
2022-07-25T04:05:08.112Z,50.42
2022-07-25T04:07:34.911Z,50.50
2022-07-25T04:10:01.913Z,50.75
2022-07-25T04:12:28.591Z,50.72
2022-07-25T04:14:55.286Z,50.51
2022-07-25T04:17:22.107Z,50.73
2022-07-25T04:19:51.004Z,50.61
2022-07-25T04:22:17.722Z,50.41
2022-07-25T04:24:44.489Z,50.49
2022-07-25T04:27:11.231Z,50.63
2022-07-25T04:29:37.966Z,50.69
2022-07-25T04:32:05.417Z,50.99
2022-07-25T04:34:32.191Z,50.89
2022-07-25T04:36:58.927Z,51.09
2022-07-25T04:39:25.580Z,51.14
2022-07-25T04:41:52.288Z,51.31
2022-07-25T04:44:18.935Z,51.07
2022-07-25T04:46:45.625Z,51.25
2022-07-25T04:49:12.321Z,51.05
2022-07-25T04:51:39.108Z,50.84
2022-07-25T04:54:06.434Z,50.95
2022-07-25T04:56:33.382Z,51.17
2022-07-25T04:59:04.816Z,51.40
2022-07-25T05:01:34.436Z,51.14
2022-07-25T05:04:01.265Z,51.49
2022-07-25T05:06:28.048Z,51.33
2022-07-25T05:08:55.494Z,51.42
2022-07-25T05:11:22.337Z,51.45
2022-07-25T05:13:48.992Z,50.95
2022-07-25T05:16:15.780Z,51.52
2022-07-25T05:18:42.571Z,51.06
2022-07-25T05:21:12.664Z,51.24
2022-07-25T05:23:39.783Z,51.24
2022-07-25T05:26:06.463Z,51.50
2022-07-25T05:28:33.259Z,51.22
2022-07-25T05:31:00.239Z,51.72
2022-07-25T05:33:27.139Z,51.37
2022-07-25T05:35:53.875Z,51.60
2022-07-25T05:38:20.773Z,51.59
2022-07-25T05:40:48.092Z,51.67
2022-07-25T05:43:14.893Z,51.69
2022-07-25T05:45:41.631Z,51.36
2022-07-25T05:48:08.398Z,51.78
2022-07-25T05:50:37.040Z,51.55
2022-07-25T05:53:03.784Z,51.50
2022-07-25T05:55:30.486Z,51.44
2022-07-25T05:57:57.161Z,51.67
2022-07-25T06:00:24.287Z,51.77
2022-07-25T06:02:51.094Z,51.76
2022-07-25T06:05:17.847Z,51.47
2022-07-25T06:07:44.571Z,51.33
2022-07-25T06:10:11.355Z,51.35
2022-07-25T06:12:38.128Z,51.70
2022-07-25T06:15:05.989Z,51.78
2022-07-25T06:17:33.091Z,51.71
2022-07-25T06:19:59.864Z,51.88
2022-07-25T06:22:26.609Z,51.50
2022-07-25T06:24:53.258Z,51.54
2022-07-25T06:27:21.622Z,51.80
2022-07-25T06:29:49.887Z,51.72
2022-07-25T06:32:16.575Z,51.38
2022-07-25T06:34:43.655Z,51.72
2022-07-25T06:37:10.444Z,51.74
2022-07-25T06:39:37.194Z,51.39
2022-07-25T06:42:04.576Z,51.62
2022-07-25T06:44:35.412Z,51.52
2022-07-25T06:47:03.162Z,51.90
2022-07-25T06:49:29.849Z,51.50
2022-07-25T06:51:56.632Z,51.71
2022-07-25T06:54:23.650Z,51.82
2022-07-25T06:56:50.348Z,51.94
2022-07-25T06:59:17.099Z,51.96
2022-07-25T07:01:45.962Z,51.89
2022-07-25T07:04:16.511Z,52.03
2022-07-25T07:06:43.867Z,52.00
2022-07-25T07:09:10.706Z,51.87
2022-07-25T07:11:37.462Z,51.16
2022-07-25T07:14:04.982Z,50.96
2022-07-25T07:16:32.103Z,50.86
2022-07-25T07:18:58.856Z,51.12
2022-07-25T07:21:25.493Z,50.34
2022-07-25T07:23:53.640Z,50.30
2022-07-25T07:26:21.500Z,50.11
2022-07-25T07:28:48.377Z,49.53
2022-07-25T07:31:18.316Z,49.28
2022-07-25T07:33:45.721Z,48.82
2022-07-25T07:36:12.536Z,48.28
2022-07-25T07:38:39.944Z,48.17
2022-07-25T07:41:06.652Z,47.78
2022-07-25T07:43:33.339Z,47.64
2022-07-25T07:46:00.973Z,47.59
2022-07-25T07:48:29.290Z,46.93
2022-07-25T07:50:56.111Z,47.13
2022-07-25T07:53:22.941Z,46.96
2022-07-25T07:55:55.251Z,46.39
2022-07-25T07:58:22.164Z,46.22
2022-07-25T08:00:50.963Z,46.25
2022-07-25T08:03:19.529Z,46.26
2022-07-25T08:05:48.932Z,45.82
2022-07-25T08:08:16.242Z,45.74
2022-07-25T08:10:46.550Z,45.71
2022-07-25T08:13:15.896Z,45.75
2022-07-25T08:15:44.341Z,45.22
2022-07-25T08:18:17.355Z,45.31
2022-07-25T08:20:48.634Z,45.00
2022-07-25T08:23:15.496Z,44.69
2022-07-25T08:25:42.771Z,44.81
2022-07-25T08:28:09.573Z,44.63
2022-07-25T08:30:37.443Z,44.42
2022-07-25T08:33:07.340Z,44.37
2022-07-25T08:35:34.808Z,44.22
2022-07-25T08:38:02.746Z,44.19
2022-07-25T08:40:30.544Z,44.29
2022-07-25T08:42:58.510Z,44.33
2022-07-25T08:45:26.796Z,43.78
2022-07-25T08:47:54.666Z,43.76
2022-07-25T08:50:25.002Z,43.88
2022-07-25T08:53:04.587Z,43.93
2022-07-25T08:55:37.148Z,43.75
2022-07-25T08:58:03.860Z,43.31
2022-07-25T09:00:30.662Z,43.43
2022-07-25T09:03:03.502Z,43.21
2022-07-25T09:05:32.058Z,43.44
2022-07-25T09:08:17.474Z,43.43
2022-07-25T09:10:50.242Z,43.42
2022-07-25T09:13:21.578Z,42.89
2022-07-25T09:15:53.832Z,42.94
2022-07-25T09:18:25.311Z,43.06
2022-07-25T09:20:54.325Z,43.02
2022-07-25T09:23:38.162Z,42.82
2022-07-25T09:26:11.554Z,42.73
2022-07-25T09:28:45.291Z,42.92
2022-07-25T09:31:13.483Z,42.48
2022-07-25T09:33:56.469Z,42.60
2022-07-25T09:36:23.868Z,42.74
2022-07-25T09:38:57.794Z,42.44
2022-07-25T09:41:41.211Z,42.49
2022-07-25T09:44:17.886Z,42.28
2022-07-25T09:46:45.577Z,42.30
2022-07-25T09:49:14.685Z,42.45
2022-07-25T09:51:42.324Z,42.30
2022-07-25T09:54:09.540Z,42.63
2022-07-25T09:56:36.645Z,42.28
2022-07-25T09:59:04.983Z,41.99
2022-07-25T10:01:37.300Z,42.34
2022-07-25T10:04:14.715Z,41.99
2022-07-25T10:06:53.728Z,42.26
2022-07-25T10:09:20.751Z,42.06
2022-07-25T10:12:07.942Z,41.71
2022-07-25T10:14:35.455Z,41.50
2022-07-25T10:17:02.358Z,41.59
2022-07-25T10:19:50.187Z,41.85
2022-07-25T10:22:29.624Z,41.53
2022-07-25T10:25:19.692Z,41.64
2022-07-25T10:27:50.960Z,41.90
2022-07-25T10:30:23.645Z,41.76
2022-07-25T10:32:57.671Z,41.55
2022-07-25T10:35:26.034Z,41.05
2022-07-25T10:37:54.308Z,40.80
2022-07-25T10:40:43.452Z,40.51
2022-07-25T10:43:19.943Z,40.51
2022-07-25T10:45:55.532Z,40.91
2022-07-25T10:48:23.157Z,40.24
2022-07-25T10:50:59.117Z,40.22
2022-07-25T10:53:34.148Z,40.29
2022-07-25T10:56:21.171Z,39.71
2022-07-25T10:58:52.251Z,39.74
2022-07-25T11:01:24.047Z,39.55
2022-07-25T11:03:52.399Z,39.73
2022-07-25T11:06:30.016Z,40.08
2022-07-25T11:08:57.901Z,39.74
2022-07-25T11:11:38.786Z,39.73
2022-07-25T11:14:06.663Z,39.58
2022-07-25T11:16:33.445Z,39.49
2022-07-25T11:19:00.193Z,39.73
2022-07-25T11:21:26.895Z,39.72
2022-07-25T11:23:53.843Z,39.00
2022-07-25T11:26:20.883Z,39.44
2022-07-25T11:28:49.210Z,39.28
2022-07-25T11:31:17.752Z,39.18
2022-07-25T11:33:47.513Z,38.89
2022-07-25T11:36:14.475Z,38.38
2022-07-25T11:38:42.239Z,38.45
2022-07-25T11:41:09.038Z,38.72
2022-07-25T11:43:35.750Z,38.73
2022-07-25T11:46:06.619Z,38.55
2022-07-25T11:48:39.450Z,38.53
2022-07-25T11:51:18.104Z,38.27
2022-07-25T11:53:48.490Z,38.27
2022-07-25T11:56:40.790Z,38.22
2022-07-25T11:59:02.150Z,38.26
2022-07-25T12:01:37.386Z,38.22
2022-07-25T12:04:16.011Z,38.24
2022-07-25T12:06:45.023Z,38.72
2022-07-25T12:09:21.393Z,38.74
2022-07-25T12:11:49.285Z,38.41
2022-07-25T12:14:16.266Z,38.98
2022-07-25T12:16:43.109Z,38.82
2022-07-25T12:19:18.979Z,38.49
2022-07-25T12:21:45.996Z,38.69
2022-07-25T12:24:12.732Z,38.57
2022-07-25T12:26:39.459Z,39.07
2022-07-25T12:29:06.362Z,39.46
2022-07-25T12:31:33.382Z,39.61
2022-07-25T12:34:00.391Z,39.91
2022-07-25T12:36:27.139Z,40.14
2022-07-25T12:38:53.811Z,40.45
2022-07-25T12:41:22.804Z,40.66
2022-07-25T12:43:49.830Z,41.26
2022-07-25T12:46:16.916Z,41.36
2022-07-25T12:48:44.207Z,41.51
2022-07-25T12:51:11.115Z,41.67
2022-07-25T12:53:42.325Z,41.16
2022-07-25T12:56:09.798Z,40.90
2022-07-25T12:58:37.088Z,40.82
2022-07-25T13:01:05.752Z,40.55
2022-07-25T13:03:32.656Z,40.61
2022-07-25T13:05:59.423Z,40.21
2022-07-25T13:08:26.111Z,40.43
2022-07-25T13:10:52.876Z,39.69
2022-07-25T13:13:19.528Z,39.46
2022-07-25T13:15:46.434Z,39.92
2022-07-25T13:18:13.270Z,39.31
2022-07-25T13:20:39.976Z,39.42
2022-07-25T13:23:06.688Z,39.19
2022-07-25T13:25:34.296Z,39.35
2022-07-25T13:28:04.105Z,38.77
2022-07-25T13:30:37.726Z,39.00
2022-07-25T13:33:04.914Z,38.63
2022-07-25T13:35:38.169Z,38.44
2022-07-25T13:38:05.759Z,38.79
2022-07-25T13:40:32.494Z,38.52
2022-07-25T13:42:59.267Z,38.17
2022-07-25T13:45:26.048Z,37.47
2022-07-25T13:48:12.031Z,37.96
2022-07-25T13:50:39.835Z,37.72
2022-07-25T13:53:06.989Z,37.46
2022-07-25T13:55:34.067Z,37.11
2022-07-25T13:58:00.947Z,37.03
2022-07-25T14:00:27.884Z,37.26
2022-07-25T14:02:54.522Z,36.58
2022-07-25T14:05:21.296Z,36.49
2022-07-25T14:07:48.054Z,36.49
2022-07-25T14:10:14.822Z,36.24
2022-07-25T14:12:41.540Z,36.30
2022-07-25T14:15:08.803Z,36.37
2022-07-25T14:17:35.568Z,36.11
2022-07-25T14:20:03.769Z,36.00
2022-07-25T14:22:30.431Z,35.74
2022-07-25T14:24:57.220Z,35.93
2022-07-25T14:27:24.512Z,35.66
2022-07-25T14:29:51.191Z,35.61
2022-07-25T14:32:17.848Z,35.42
2022-07-25T14:34:44.841Z,35.18
2022-07-25T14:37:12.037Z,34.92
2022-07-25T14:39:38.837Z,34.90
2022-07-25T14:42:06.569Z,35.28
2022-07-25T14:44:33.743Z,35.02
2022-07-25T14:47:00.750Z,35.20
2022-07-25T14:49:30.066Z,35.03
2022-07-25T14:51:57.828Z,34.88
2022-07-25T14:54:29.035Z,34.60
2022-07-25T14:56:56.742Z,34.79
2022-07-25T14:59:25.272Z,34.57
2022-07-25T15:01:53.138Z,34.96
2022-07-25T15:04:22.055Z,34.48
2022-07-25T15:06:49.093Z,34.80
2022-07-25T15:09:16.276Z,34.76
2022-07-25T15:11:43.007Z,34.37
2022-07-25T15:14:09.693Z,34.70
2022-07-25T15:16:37.439Z,34.29
2022-07-25T15:19:16.518Z,34.29
2022-07-25T15:21:43.841Z,34.70
2022-07-25T15:24:10.531Z,34.63
2022-07-25T15:26:37.451Z,34.54
2022-07-25T15:29:08.060Z,34.80
2022-07-25T15:31:38.555Z,35.10
2022-07-25T15:34:05.270Z,35.01
2022-07-25T15:36:31.946Z,34.78
2022-07-25T15:38:58.644Z,35.11
2022-07-25T15:41:26.547Z,34.87
2022-07-25T15:43:53.407Z,35.04
2022-07-25T15:46:20.229Z,34.89
2022-07-25T15:48:47.041Z,35.14
2022-07-25T15:51:16.603Z,35.13
2022-07-25T15:53:43.567Z,35.33
2022-07-25T15:56:10.898Z,34.97
2022-07-25T15:58:37.628Z,35.15
2022-07-25T16:01:04.485Z,35.29
2022-07-25T16:03:31.299Z,35.07
2022-07-25T16:05:58.882Z,35.03
2022-07-25T16:08:25.691Z,35.23
2022-07-25T16:10:52.840Z,34.90
2022-07-25T16:13:19.578Z,34.88
2022-07-25T16:15:46.362Z,34.75
2022-07-25T16:18:13.150Z,34.68
2022-07-25T16:20:39.842Z,34.50
2022-07-25T16:23:06.769Z,34.61
2022-07-25T16:25:33.439Z,34.62
2022-07-25T16:28:00.233Z,34.75
2022-07-25T16:30:27.369Z,34.46
2022-07-25T16:32:54.109Z,34.29
2022-07-25T16:35:20.938Z,34.44
2022-07-25T16:37:48.121Z,34.01
2022-07-25T16:40:15.109Z,33.99
2022-07-25T16:42:42.343Z,34.17
2022-07-25T16:45:10.235Z,34.11
2022-07-25T16:47:37.231Z,33.98
2022-07-25T16:50:04.318Z,34.05
2022-07-25T16:52:31.038Z,34.13
2022-07-25T16:54:57.683Z,33.91
2022-07-25T16:57:24.889Z,34.23
2022-07-25T16:59:53.342Z,34.08
2022-07-25T17:02:22.950Z,34.28
2022-07-25T17:04:53.045Z,33.84
2022-07-25T17:07:19.778Z,34.08
2022-07-25T17:09:46.495Z,33.85
2022-07-25T17:12:13.212Z,33.80
2022-07-25T17:14:39.999Z,33.93
2022-07-25T17:17:06.746Z,33.69
2022-07-25T17:19:36.335Z,33.59
2022-07-25T17:22:02.976Z,33.82
2022-07-25T17:24:29.722Z,33.82
2022-07-25T17:26:56.435Z,33.78
2022-07-25T17:29:23.187Z,33.71
2022-07-25T17:31:49.827Z,33.92
2022-07-25T17:34:16.614Z,33.52
2022-07-25T17:36:43.546Z,33.37
2022-07-25T17:39:11.764Z,33.47
2022-07-25T17:41:38.494Z,33.50
2022-07-25T17:44:09.956Z,33.60
2022-07-25T17:46:38.504Z,33.13
2022-07-25T17:49:05.316Z,33.23
2022-07-25T17:51:32.022Z,33.44
2022-07-25T17:53:58.770Z,33.53
2022-07-25T17:56:25.702Z,33.15
2022-07-25T17:58:52.496Z,33.55
2022-07-25T18:01:19.357Z,33.36
2022-07-25T18:03:47.562Z,33.43
2022-07-25T18:06:14.787Z,33.18
2022-07-25T18:08:41.590Z,33.52
2022-07-25T18:11:08.374Z,33.52
2022-07-25T18:13:35.349Z,33.52
2022-07-25T18:16:02.249Z,33.15
2022-07-25T18:18:29.445Z,33.22
2022-07-25T18:20:56.141Z,33.12
2022-07-25T18:23:24.257Z,33.24
2022-07-25T18:25:52.089Z,33.14
2022-07-25T18:28:19.047Z,33.04
2022-07-25T18:30:45.796Z,33.20
2022-07-25T18:33:12.443Z,32.99
2022-07-25T18:35:39.195Z,33.03
2022-07-25T18:38:05.941Z,33.03
2022-07-25T18:40:32.633Z,32.77
2022-07-25T18:42:59.340Z,32.71
2022-07-25T18:45:26.070Z,32.98
2022-07-25T18:47:53.476Z,32.75
2022-07-25T18:50:20.390Z,32.76
2022-07-25T18:52:47.252Z,32.57
2022-07-25T18:55:13.953Z,32.62
2022-07-25T18:57:40.604Z,32.60
2022-07-25T19:00:10.852Z,32.76
2022-07-25T19:02:37.672Z,33.14
2022-07-25T19:05:05.613Z,33.20
2022-07-25T19:07:33.429Z,33.26
2022-07-25T19:10:00.353Z,33.48
2022-07-25T19:12:27.425Z,33.47
2022-07-25T19:14:54.712Z,34.00
2022-07-25T19:17:21.511Z,33.82
2022-07-25T19:19:48.207Z,34.33
2022-07-25T19:22:14.999Z,34.04
2022-07-25T19:24:42.339Z,34.71
2022-07-25T19:27:09.719Z,34.31
2022-07-25T19:29:40.034Z,34.45
2022-07-25T19:32:07.174Z,34.59
2022-07-25T19:34:33.963Z,35.09
2022-07-25T19:37:00.826Z,34.96
2022-07-25T19:39:27.548Z,35.24
2022-07-25T19:41:54.355Z,35.43
2022-07-25T19:44:21.246Z,35.35
2022-07-25T19:46:49.527Z,35.04
2022-07-25T19:49:16.277Z,35.15
2022-07-25T19:51:43.057Z,35.76
2022-07-25T19:54:11.208Z,35.47
2022-07-25T19:56:38.387Z,35.81
2022-07-25T19:59:05.557Z,35.76
2022-07-25T20:01:36.431Z,35.50
2022-07-25T20:04:05.360Z,35.48
2022-07-25T20:06:32.578Z,35.53
2022-07-25T20:08:59.305Z,35.61
2022-07-25T20:11:25.979Z,35.91
2022-07-25T20:13:54.239Z,36.04
2022-07-25T20:16:21.117Z,35.93
2022-07-25T20:18:48.042Z,35.70
2022-07-25T20:21:17.390Z,35.69
2022-07-25T20:23:45.144Z,36.15
2022-07-25T20:26:12.310Z,35.96
2022-07-25T20:28:39.192Z,36.03
2022-07-25T20:31:06.293Z,36.37
2022-07-25T20:33:33.066Z,36.28
2022-07-25T20:36:00.032Z,36.27
2022-07-25T20:38:32.290Z,36.41
2022-07-25T20:40:59.890Z,36.74
2022-07-25T20:43:27.170Z,37.23
2022-07-25T20:45:54.013Z,36.70
2022-07-25T20:48:20.765Z,37.24
2022-07-25T20:50:47.442Z,37.50
2022-07-25T20:53:14.141Z,37.45
2022-07-25T20:55:40.867Z,37.23
2022-07-25T20:58:07.719Z,37.63
2022-07-25T21:00:34.936Z,37.47
2022-07-25T21:03:02.688Z,37.46
2022-07-25T21:05:29.723Z,37.94
2022-07-25T21:07:56.730Z,37.68
2022-07-25T21:10:23.616Z,38.14
2022-07-25T21:12:50.372Z,38.18
2022-07-25T21:15:17.490Z,38.20
2022-07-25T21:17:44.254Z,38.35
2022-07-25T21:20:12.505Z,38.85
2022-07-25T21:22:40.047Z,38.77
2022-07-25T21:25:07.392Z,39.00
2022-07-25T21:27:34.423Z,39.17
2022-07-25T21:30:01.240Z,38.99
2022-07-25T21:32:28.053Z,39.36
2022-07-25T21:34:54.883Z,39.70
2022-07-25T21:37:21.606Z,39.61
2022-07-25T21:39:48.351Z,39.76
2022-07-25T21:42:15.255Z,39.84
2022-07-25T21:44:43.580Z,39.83
2022-07-25T21:47:10.860Z,39.92
2022-07-25T21:49:56.625Z,39.89
2022-07-25T21:52:34.376Z,40.43
2022-07-25T21:55:02.470Z,40.43
2022-07-25T21:57:29.211Z,40.06
2022-07-25T21:59:55.970Z,40.15
2022-07-25T22:02:23.433Z,40.45
2022-07-25T22:04:50.305Z,40.90
2022-07-25T22:07:16.990Z,41.17
2022-07-25T22:09:43.842Z,41.55
2022-07-25T22:12:10.546Z,41.75
2022-07-25T22:14:38.101Z,41.76
2022-07-25T22:17:05.920Z,42.03
2022-07-25T22:19:33.109Z,42.26
2022-07-25T22:22:00.026Z,42.60
2022-07-25T22:24:27.025Z,42.43
2022-07-25T22:26:53.756Z,42.76
2022-07-25T22:29:20.427Z,43.00
2022-07-25T22:31:47.311Z,43.29
2022-07-25T22:34:14.059Z,43.80
2022-07-25T22:36:41.046Z,43.88
2022-07-25T22:39:08.417Z,43.88
2022-07-25T22:41:35.453Z,44.01
2022-07-25T22:44:02.199Z,44.43
2022-07-25T22:46:29.971Z,44.73
2022-07-25T22:48:58.171Z,44.59
2022-07-25T22:51:25.481Z,45.10
2022-07-25T22:53:52.692Z,44.85
2022-07-25T22:56:19.569Z,45.47
2022-07-25T22:58:49.272Z,44.99
2022-07-25T23:01:17.742Z,45.21
2022-07-25T23:03:45.009Z,45.29
2022-07-25T23:06:11.953Z,45.26
2022-07-25T23:08:38.819Z,45.30
2022-07-25T23:11:06.193Z,45.70
2022-07-25T23:13:33.751Z,45.38
2022-07-25T23:16:00.567Z,45.94
2022-07-25T23:18:28.635Z,45.53
2022-07-25T23:20:55.309Z,45.48
2022-07-25T23:23:22.196Z,45.81
2022-07-25T23:25:48.843Z,45.63
2022-07-25T23:28:15.575Z,45.66
2022-07-25T23:30:42.273Z,46.20
2022-07-25T23:33:09.162Z,46.33
2022-07-25T23:35:36.185Z,45.68
2022-07-25T23:38:03.383Z,46.13
2022-07-25T23:40:30.411Z,46.36
2022-07-25T23:42:57.082Z,46.43
2022-07-25T23:45:26.975Z,46.08
2022-07-25T23:47:55.522Z,46.00
2022-07-25T23:50:22.719Z,46.16
2022-07-25T23:52:49.473Z,46.26
2022-07-25T23:55:16.202Z,46.25
2022-07-25T23:57:43.175Z,46.09
